Time;durP1;ratioP1;P1;durP2;ratioP2;P2;SDS_P1;SDS_P2;PMS_P1;PMS_P2;Temp;Humidity;BMP_temperature;BMP_pressure;BME280_temperature;BME280_humidity;BME280_pressure;Samples;Min_cycle;Max_cycle;Signal;HPM_P1;HPM_P2
2023/04/27 00:00:42;;;;;;;;;9.50;9.25;;;;;15.60;50.70;101001.78;5076398;27;45629;-76
2023/04/27 00:03:08;;;;;;;;;9.50;9.00;;;;;15.59;50.95;101009.88;5075880;27;45717;-78
2023/04/27 00:05:37;;;;;;;;;10.75;8.00;;;;;15.57;51.08;101007.34;5075532;27;46749;-79
2023/04/27 00:11:25;;;;;;;;;10.75;8.25;;;;;15.59;50.77;101009.88;5075058;28;45592;-79
2023/04/27 00:13:51;;;;;;;;;10.00;8.25;;;;;15.57;51.09;101009.16;5075249;27;45634;-80
2023/04/27 00:16:17;;;;;;;;;7.00;7.00;;;;;15.58;51.24;101005.56;5075236;27;45533;-81
2023/04/27 00:18:42;;;;;;;;;7.25;6.50;;;;;15.55;51.14;100998.72;5075066;28;45659;-79
2023/04/27 00:21:10;;;;;;;;;9.25;7.00;;;;;15.56;51.12;100999.56;5074996;27;45890;-77
2023/04/27 00:23:35;;;;;;;;;7.75;7.00;;;;;15.54;51.19;101002.34;5075128;27;45670;-78
2023/04/27 00:26:01;;;;;;;;;9.25;7.00;;;;;15.55;51.10;100998.72;5090507;27;46655;-79
2023/04/27 00:28:27;;;;;;;;;7.25;6.25;;;;;15.57;51.24;100994.16;5075108;27;45881;-79
2023/04/27 00:30:53;;;;;;;;;9.50;7.00;;;;;15.57;51.41;100990.66;5075104;27;46197;-79
2023/04/27 00:33:19;;;;;;;;;7.00;6.00;;;;;15.57;51.31;100980.09;5075221;27;45586;-80
2023/04/27 00:35:45;;;;;;;;;8.00;7.00;;;;;15.53;51.40;100983.03;5075232;27;46455;-81
2023/04/27 00:41:35;;;;;;;;;10.75;8.50;;;;;15.51;51.41;100979.66;5075567;28;45680;-80
2023/04/27 00:44:00;;;;;;;;;7.50;6.50;;;;;15.50;51.54;100987.69;5075001;27;45758;-77
2023/04/27 00:46:26;;;;;;;;;6.25;6.00;;;;;15.48;51.33;100977.28;5073394;28;48339;-78
2023/04/27 00:48:52;;;;;;;;;6.50;6.25;;;;;15.48;51.59;100979.91;5074217;27;46077;-79
2023/04/27 00:51:18;;;;;;;;;8.50;6.75;;;;;15.48;51.32;100974.63;5074592;27;45535;-80
2023/04/27 00:53:43;;;;;;;;;5.75;5.00;;;;;15.48;51.66;100982.56;5074775;27;45586;-80
2023/04/27 00:56:09;;;;;;;;;9.50;7.50;;;;;15.46;51.30;100968.63;5074516;28;46416;-79
2023/04/27 00:58:35;;;;;;;;;9.00;7.25;;;;;15.45;51.42;100972.22;5074652;27;46083;-80
2023/04/27 01:01:00;;;;;;;;;11.50;8.25;;;;;15.47;51.77;100982.66;5074499;27;45435;-79
2023/04/27 01:03:27;;;;;;;;;7.25;6.25;;;;;15.47;51.28;100977.38;5074783;27;45697;-80
2023/04/27 01:05:52;;;;;;;;;7.00;6.50;;;;;15.49;51.65;100973.63;5074615;27;46440;-80
2023/04/27 01:11:39;;;;;;;;;7.25;6.25;;;;;15.50;51.76;100975.31;5074299;28;45899;-80
2023/04/27 01:14:06;;;;;;;;;7.75;6.00;;;;;15.51;51.39;100977.03;5074823;27;45532;-81
2023/04/27 01:16:32;;;;;;;;;7.75;5.00;;;;;15.48;51.29;100979.91;5074994;27;46458;-79
2023/04/27 01:18:58;;;;;;;;;7.00;7.00;;;;;15.46;51.50;100983.63;5076251;27;46198;-80
2023/04/27 01:21:25;;;;;;;;;8.00;6.00;;;;;15.44;51.44;100981.13;5076604;27;45623;-80
2023/04/27 01:27:12;;;;;;;;;4.00;3.75;;;;;15.33;51.61;100981.19;5062785;28;45861;-80
2023/04/27 01:29:38;;;;;;;;;7.00;6.50;;;;;15.34;51.68;100988.16;5074302;27;45757;-79
2023/04/27 01:32:04;;;;;;;;;8.75;8.25;;;;;15.31;52.19;100979.66;5072529;28;45771;-79
2023/04/27 01:34:30;;;;;;;;;10.25;10.00;;;;;15.27;52.11;100981.75;5089911;27;45604;-80
2023/04/27 01:36:56;;;;;;;;;10.75;8.00;;;;;15.28;52.49;100985.19;5073903;27;46501;-81
2023/04/27 01:39:22;;;;;;;;;8.50;7.50;;;;;15.29;52.51;100984.22;5073953;27;45917;-79
2023/04/27 01:41:48;;;;;;;;;10.25;8.75;;;;;15.27;52.31;100972.97;5074016;27;45748;-78
2023/04/27 01:44:13;;;;;;;;;9.00;7.00;;;;;15.32;52.48;100978.69;5074139;27;45416;-79
2023/04/27 01:46:38;;;;;;;;;7.00;6.50;;;;;15.28;52.62;100950.88;5073864;27;45479;-76
2023/04/27 01:49:04;;;;;;;;;9.00;8.25;;;;;15.28;52.68;100970.19;5073899;27;46191;-80
2023/04/27 01:51:32;;;;;;;;;6.25;6.25;;;;;15.25;52.67;100953.78;5074047;27;46022;-79
2023/04/27 01:57:20;;;;;;;;;8.75;6.00;;;;;15.26;52.90;100953.66;5073385;28;45457;-79
2023/04/27 01:59:45;;;;;;;;;6.50;5.50;;;;;15.26;52.53;100947.53;5074867;27;45954;-76
2023/04/27 02:02:11;;;;;;;;;10.00;7.00;;;;;15.24;52.68;100949.47;5077660;27;45817;-75
2023/04/27 02:04:36;;;;;;;;;8.25;6.50;;;;;15.21;52.37;100960.28;5077492;28;45580;-78
2023/04/27 02:07:02;;;;;;;;;9.50;9.25;;;;;15.19;52.72;100957.78;5092626;27;46346;-76
2023/04/27 02:09:27;;;;;;;;;6.00;6.00;;;;;15.19;52.61;100963.06;5077324;28;46019;-77
2023/04/27 02:11:53;;;;;;;;;6.50;6.00;;;;;15.20;52.45;100956.81;5077219;27;45647;-79
2023/04/27 02:14:18;;;;;;;;;8.25;6.25;;;;;15.21;52.44;100947.09;5077400;28;45838;-78
2023/04/27 02:16:44;;;;;;;;;6.75;6.75;;;;;15.20;52.46;100956.81;5077825;27;45588;-76
2023/04/27 02:19:09;;;;;;;;;8.25;7.00;;;;;15.19;52.41;100952.50;5081679;27;46469;-77
2023/04/27 02:21:35;;;;;;;;;9.00;6.50;;;;;15.21;52.72;100957.66;5086254;27;45758;-78
2023/04/27 02:27:22;;;;;;;;;8.50;7.25;;;;;15.21;52.67;100952.38;5076708;28;45900;-79
2023/04/27 02:29:47;;;;;;;;;10.00;9.00;;;;;15.20;52.61;100950.69;5077909;28;45632;-78
2023/04/27 02:32:12;;;;;;;;;11.00;9.25;;;;;15.19;52.23;100962.22;5092841;27;45813;-78
2023/04/27 02:34:38;;;;;;;;;9.00;9.00;;;;;15.18;52.00;100957.91;5077221;27;45751;-78
2023/04/27 02:37:03;;;;;;;;;11.00;10.00;;;;;15.17;52.56;100958.91;5076877;27;45694;-77
2023/04/27 02:42:51;;;;;;;;;8.25;6.00;;;;;15.13;52.66;100972.31;5076789;28;45750;-75
2023/04/27 02:45:16;;;;;;;;;9.50;9.25;;;;;15.10;52.40;100964.69;5077187;27;45505;-80
2023/04/27 02:47:42;;;;;;;;;10.50;10.00;;;;;15.09;52.64;100957.72;5076929;28;45866;-80
2023/04/27 02:50:08;;;;;;;;;11.75;10.00;;;;;15.08;52.49;100957.84;5076810;28;45584;-77
2023/04/27 02:52:33;;;;;;;;;8.50;8.50;;;;;15.08;52.67;100963.13;5076796;27;45707;-78
2023/04/27 02:54:59;;;;;;;;;7.75;6.75;;;;;15.08;52.69;100966.59;5076857;27;45604;-77
2023/04/27 02:57:24;;;;;;;;;9.75;9.00;;;;;15.08;52.47;100969.25;5091904;27;46857;-78
2023/04/27 02:59:49;;;;;;;;;12.25;10.00;;;;;15.10;52.49;100969.97;5076491;27;45758;-79
2023/04/27 03:02:15;;;;;;;;;9.75;9.25;;;;;15.10;52.55;100971.75;5076686;27;45676;-81
2023/04/27 03:04:40;;;;;;;;;8.25;8.25;;;;;15.08;52.62;100966.59;5076737;27;45610;-79
2023/04/27 03:07:06;;;;;;;;;11.50;9.00;;;;;15.09;52.58;100978.84;5076336;27;45654;-80
2023/04/27 03:12:53;;;;;;;;;11.25;10.75;;;;;15.12;52.63;100972.44;5076014;28;45699;-81
2023/04/27 03:15:18;;;;;;;;;9.00;9.00;;;;;15.10;52.54;100969.97;5075210;28;45676;-79
2023/04/27 03:17:44;;;;;;;;;10.00;9.00;;;;;15.12;52.93;100970.66;5076339;27;46164;-79
2023/04/27 03:20:11;;;;;;;;;11.00;10.00;;;;;15.12;52.49;100964.53;5076186;28;46111;-76
2023/04/27 03:22:36;;;;;;;;;10.00;9.00;;;;;15.13;52.61;100976.78;5077390;27;45642;-77
2023/04/27 03:28:23;;;;;;;;;11.50;11.00;;;;;15.13;52.53;100966.22;5065400;28;46132;-78
2023/04/27 03:30:49;;;;;;;;;13.00;10.75;;;;;15.15;52.45;100968.72;5076018;27;45601;-79
2023/04/27 03:33:17;;;;;;;;;12.75;12.00;;;;;15.14;52.91;100967.88;5075959;27;45589;-80
2023/04/27 03:35:42;;;;;;;;;12.00;10.00;;;;;15.15;52.73;100966.94;5076096;27;45660;-78
2023/04/27 03:38:08;;;;;;;;;13.75;12.00;;;;;15.17;52.85;100966.81;5091066;27;46890;-79
2023/04/27 03:40:33;;;;;;;;;12.25;10.50;;;;;15.13;52.79;100969.69;5074167;28;46618;-78
2023/04/27 03:42:58;;;;;;;;;11.75;10.50;;;;;15.11;52.64;100971.59;5075784;27;45927;-77
2023/04/27 03:45:24;;;;;;;;;9.50;9.00;;;;;15.10;52.97;100974.41;5076090;27;45705;-78
2023/04/27 03:47:50;;;;;;;;;12.00;11.25;;;;;15.10;52.94;100955.94;5075554;27;46289;-78
2023/04/27 03:50:15;;;;;;;;;14.00;12.25;;;;;15.09;52.96;100965.66;5075669;27;45577;-77
2023/04/27 03:52:40;;;;;;;;;19.75;13.75;;;;;15.08;52.96;100958.69;5075610;27;45582;-79
2023/04/27 03:58:28;;;;;;;;;13.50;12.25;;;;;15.08;53.24;100965.75;5075381;28;45570;-81
2023/04/27 04:00:53;;;;;;;;;14.25;12.25;;;;;15.05;53.17;100966.88;5091635;27;46880;-80
2023/04/27 04:03:19;;;;;;;;;16.75;11.75;;;;;15.01;53.38;100969.88;5075719;27;45597;-81
2023/04/27 04:05:45;;;;;;;;;13.50;11.75;;;;;15.03;53.34;100963.50;5075878;27;45595;-78
2023/04/27 04:08:12;;;;;;;;;12.00;11.00;;;;;15.03;53.46;100974.06;5075191;27;45588;-81
2023/04/27 04:10:38;;;;;;;;;13.50;11.00;;;;;15.02;53.45;100967.13;5090929;27;47271;-79
2023/04/27 04:13:03;;;;;;;;;14.75;12.25;;;;;15.00;53.56;100961.16;5075402;27;45689;-79
2023/04/27 04:15:28;;;;;;;;;12.25;11.00;;;;;15.01;53.36;100959.31;5075492;27;45828;-78
2023/04/27 04:17:54;;;;;;;;;11.75;10.75;;;;;15.00;53.50;100958.50;5075236;27;46611;-80
2023/04/27 04:20:19;;;;;;;;;11.00;10.50;;;;;15.01;53.57;100961.97;5075425;27;46036;-76
2023/04/27 04:22:45;;;;;;;;;15.50;12.25;;;;;15.00;53.63;100960.31;5090222;27;45601;-80
2023/04/27 04:28:32;;;;;;;;;15.50;12.50;;;;;15.01;53.27;100968.06;5078404;28;46102;-76
2023/04/27 04:31:00;;;;;;;;;11.00;10.75;;;;;15.01;53.19;100973.34;5083336;27;45652;-81
2023/04/27 04:33:25;;;;;;;;;13.00;11.25;;;;;15.01;53.19;100970.72;5082396;28;45650;-79
2023/04/27 04:35:52;;;;;;;;;11.50;10.00;;;;;14.99;52.92;100963.91;5078541;28;45921;-76
2023/04/27 04:38:17;;;;;;;;;12.00;11.00;;;;;14.97;53.26;100964.03;5077009;27;46419;-79
2023/04/27 04:44:05;;;;;;;;;10.75;10.00;;;;;14.92;52.89;100960.94;5075596;28;45712;-79
2023/04/27 04:46:31;;;;;;;;;13.25;10.00;;;;;14.87;52.70;100957.84;5073861;28;45849;-77
2023/04/27 04:48:56;;;;;;;;;11.25;10.00;;;;;14.84;52.73;100954.63;5074744;27;45554;-75
2023/04/27 04:51:22;;;;;;;;;11.25;10.25;;;;;14.84;52.72;100949.38;5074648;28;45601;-74
2023/04/27 04:53:47;;;;;;;;;10.00;9.25;;;;;14.83;52.64;100961.72;5074732;27;45652;-77
2023/04/27 04:56:13;;;;;;;;;12.25;9.75;;;;;14.79;52.64;100954.19;5074952;27;45698;-77
2023/04/27 04:58:39;;;;;;;;;11.50;11.50;;;;;14.70;52.76;100951.34;5074535;28;45758;-78
2023/04/27 05:01:05;;;;;;;;;11.00;10.25;;;;;14.73;52.75;100955.53;5074131;27;45690;-78
2023/04/27 05:03:31;;;;;;;;;12.75;10.50;;;;;14.74;52.75;100959.00;5074684;27;45736;-75
2023/04/27 05:05:56;;;;;;;;;10.00;9.00;;;;;14.71;52.32;100962.72;5074922;27;45535;-79
2023/04/27 05:08:22;;;;;;;;;10.75;10.00;;;;;14.73;52.69;100958.16;5089967;27;48316;-79
2023/04/27 05:14:09;;;;;;;;;12.00;10.00;;;;;14.76;52.35;100968.44;5074056;28;45491;-76
2023/04/27 05:16:34;;;;;;;;;10.00;9.00;;;;;14.78;52.38;100969.19;5089911;27;45501;-79
2023/04/27 05:19:00;;;;;;;;;17.50;14.75;;;;;14.77;52.21;100962.22;5074294;27;46409;-78
2023/04/27 05:21:25;;;;;;;;;14.50;12.75;;;;;14.79;52.41;100975.28;5074532;27;45883;-78
2023/04/27 05:23:50;;;;;;;;;16.50;14.50;;;;;14.81;52.45;100973.34;5074742;27;45560;-79
2023/04/27 05:29:37;;;;;;;;;10.50;10.00;;;;;14.83;52.54;100967.00;5062893;28;45997;-77
2023/04/27 05:32:03;;;;;;;;;12.75;11.50;;;;;14.85;52.41;100965.03;5074145;28;46447;-80
2023/04/27 05:34:29;;;;;;;;;12.50;11.50;;;;;14.88;52.20;100966.59;5071619;28;45699;-76
2023/04/27 05:36:54;;;;;;;;;12.25;11.50;;;;;14.84;52.10;100957.28;5074099;27;45625;-80
2023/04/27 05:39:20;;;;;;;;;13.00;12.00;;;;;14.85;52.30;100956.28;5073872;27;45683;-81
2023/04/27 05:41:45;;;;;;;;;10.00;10.00;;;;;14.83;52.25;100955.59;5073962;27;45727;-76
2023/04/27 05:44:11;;;;;;;;;10.25;10.25;;;;;14.84;52.35;100957.28;5074053;27;45525;-78
2023/04/27 05:46:36;;;;;;;;;13.50;12.00;;;;;14.81;51.99;100962.78;5074148;27;45675;-81
2023/04/27 05:49:01;;;;;;;;;13.00;11.00;;;;;14.76;51.95;100955.25;5073872;27;45587;-79
2023/04/27 05:51:27;;;;;;;;;14.00;12.25;;;;;14.70;52.01;100955.78;5074220;27;46281;-79
2023/04/27 05:53:54;;;;;;;;;15.75;13.50;;;;;14.67;51.99;100956.03;5074258;27;45955;-78
2023/04/27 05:59:41;;;;;;;;;13.50;11.50;;;;;14.64;52.40;100962.38;5073770;28;46037;-74
2023/04/27 06:02:07;;;;;;;;;11.25;10.00;;;;;14.65;52.47;100961.44;5074509;27;45504;-77
2023/04/27 06:04:32;;;;;;;;;12.00;11.75;;;;;14.65;52.51;100961.44;5072843;28;45454;-76
2023/04/27 06:06:58;;;;;;;;;11.50;11.50;;;;;14.69;52.56;100969.91;5074437;27;45750;-77
2023/04/27 06:09:24;;;;;;;;;13.00;11.00;;;;;14.66;52.31;100973.66;5073565;27;46266;-78
2023/04/27 06:11:50;;;;;;;;;12.25;12.25;;;;;14.64;52.83;100961.53;5073772;28;46004;-79
2023/04/27 06:14:15;;;;;;;;;11.00;10.00;;;;;14.65;52.44;100963.22;5073750;27;45685;-76
2023/04/27 06:16:41;;;;;;;;;12.50;10.75;;;;;14.68;52.57;100963.00;5073742;27;45677;-74
2023/04/27 06:19:06;;;;;;;;;14.50;12.25;;;;;14.68;52.49;100961.16;5073580;27;46109;-77
2023/04/27 06:21:33;;;;;;;;;13.75;13.00;;;;;14.74;52.77;100962.47;5073356;27;45793;-75
2023/04/27 06:23:59;;;;;;;;;12.75;12.00;;;;;14.78;52.43;100961.25;5073539;27;45814;-75
2023/04/27 06:29:47;;;;;;;;;11.75;11.50;;;;;14.88;52.74;100961.31;5071459;28;45962;-78
2023/04/27 06:32:12;;;;;;;;;14.00;13.00;;;;;14.91;52.62;100956.63;5073249;27;46403;-77
2023/04/27 06:34:37;;;;;;;;;18.00;14.50;;;;;14.96;52.34;100956.22;5073489;27;45978;-75
2023/04/27 06:37:03;;;;;;;;;12.25;11.00;;;;;14.99;52.13;100962.09;5073277;28;45701;-78
2023/04/27 06:39:28;;;;;;;;;13.75;12.75;;;;;15.02;51.98;100961.84;5073177;27;45464;-76
2023/04/27 06:45:15;;;;;;;;;14.50;12.50;;;;;15.12;51.79;100977.72;5073054;28;45753;-76
2023/04/27 06:47:40;;;;;;;;;11.25;11.25;;;;;15.18;51.84;100986.94;5076668;27;45671;-74
2023/04/27 06:50:06;;;;;;;;;15.25;14.75;;;;;15.23;51.92;100984.75;5076242;27;46726;-79
2023/04/27 06:52:32;;;;;;;;;15.25;13.00;;;;;15.25;51.71;100974.91;5076509;27;46508;-81
2023/04/27 06:54:58;;;;;;;;;10.00;10.00;;;;;15.26;51.22;100976.56;5076767;28;45554;-78
2023/04/27 06:57:23;;;;;;;;;11.75;10.50;;;;;15.23;51.06;100976.81;5076480;27;45720;-76
2023/04/27 06:59:50;;;;;;;;;6.50;6.50;;;;;15.25;50.88;100974.91;5076674;27;45469;-80
2023/04/27 07:02:16;;;;;;;;;13.00;12.75;;;;;15.29;50.86;100977.16;5075017;28;46325;-78
2023/04/27 07:04:42;;;;;;;;;16.25;13.00;;;;;15.33;50.81;100983.03;5076519;27;45455;-79
2023/04/27 07:07:07;;;;;;;;;14.00;12.25;;;;;15.34;50.72;100974.94;5076585;27;45676;-80
2023/04/27 07:09:33;;;;;;;;;12.25;11.75;;;;;15.42;50.91;100975.16;5076249;27;46377;-80
2023/04/27 07:15:20;;;;;;;;;14.75;13.50;;;;;15.51;50.37;100962.94;5076133;28;45530;-78
2023/04/27 07:17:46;;;;;;;;;13.75;12.25;;;;;15.50;50.45;100958.63;5076451;27;45513;-75
2023/04/27 07:20:13;;;;;;;;;11.25;10.75;;;;;15.51;49.80;100949.75;5076267;27;45463;-76
2023/04/27 07:22:38;;;;;;;;;14.75;13.50;;;;;15.47;50.20;100949.19;5076436;27;46195;-80
2023/04/27 07:25:05;;;;;;;;;11.50;11.25;;;;;15.49;50.23;100955.16;5076295;27;45707;-79
2023/04/27 07:27:30;;;;;;;;;11.75;11.00;;;;;15.52;50.10;100944.38;5076196;27;45667;-77
2023/04/27 07:29:56;;;;;;;;;12.00;11.25;;;;;15.53;49.60;100951.31;5075797;27;46169;-78
2023/04/27 07:32:21;;;;;;;;;12.00;11.50;;;;;15.53;49.39;100947.84;5075962;27;45915;-77
2023/04/27 07:34:47;;;;;;;;;15.75;13.00;;;;;15.51;49.80;100965.59;5076626;27;45609;-77
2023/04/27 07:37:13;;;;;;;;;13.75;13.25;;;;;15.53;49.55;100964.53;5076011;27;45616;-77
2023/04/27 07:39:38;;;;;;;;;13.75;12.75;;;;;15.56;49.64;100965.22;5075720;27;45565;-76
2023/04/27 07:45:31;;;;;;;;;12.50;11.25;;;;;15.68;49.39;100962.38;5075753;28;45667;-78
2023/04/27 07:47:58;;;;;;;;;13.50;11.00;;;;;15.76;49.35;100953.78;5075979;27;45569;-79
2023/04/27 07:50:25;;;;;;;;;14.25;14.00;;;;;15.84;49.26;100959.22;5075663;27;45677;-78
2023/04/27 07:52:53;;;;;;;;;14.75;13.25;;;;;15.87;48.42;100949.22;5075609;28;45692;-75
2023/04/27 08:01:25;;;;;;;;;11.50;10.75;;;;;15.92;48.27;100948.84;5075339;28;45711;-79
2023/04/27 08:03:51;;;;;;;;;14.00;12.00;;;;;15.95;48.04;100957.31;5073888;28;45902;-78
2023/04/27 08:06:18;;;;;;;;;12.75;12.50;;;;;15.98;47.84;100961.47;5075436;28;45671;-79
2023/04/27 08:08:43;;;;;;;;;12.00;9.75;;;;;16.02;47.95;100968.19;5075801;27;45521;-77
2023/04/27 08:11:10;;;;;;;;;11.75;10.75;;;;;16.07;48.07;100971.25;5075176;28;45646;-79
2023/04/27 08:13:36;;;;;;;;;10.75;8.00;;;;;16.10;47.96;100962.22;5075308;27;45712;-79
2023/04/27 08:16:01;;;;;;;;;9.75;7.25;;;;;16.13;47.92;100972.53;5075319;28;45601;-78
2023/04/27 08:18:27;;;;;;;;;10.75;8.25;;;;;16.11;47.87;100962.09;5075374;27;45694;-77
2023/04/27 08:20:53;;;;;;;;;12.25;8.50;;;;;16.16;47.52;100967.78;5075232;27;46490;-77
2023/04/27 08:23:18;;;;;;;;;8.75;7.25;;;;;16.17;47.34;100971.28;5075183;27;46092;-80
2023/04/27 08:25:44;;;;;;;;;11.75;9.00;;;;;16.18;47.21;100965.03;5075329;27;45735;-76
2023/04/27 08:28:09;;;;;;;;;8.00;6.50;;;;;16.18;47.23;100957.94;5075212;27;45776;-79
2023/04/27 08:30:35;;;;;;;;;7.50;7.00;;;;;16.22;47.00;100940.81;5074703;27;45801;-77
2023/04/27 08:33:00;;;;;;;;;11.75;8.75;;;;;16.22;47.04;100939.97;5075124;27;45660;-77
2023/04/27 08:35:26;;;;;;;;;7.25;7.00;;;;;16.22;46.68;100938.16;5075341;27;45759;-80
2023/04/27 08:37:53;;;;;;;;;9.25;6.50;;;;;16.23;46.56;100933.72;5075009;27;45854;-80
2023/04/27 08:40:19;;;;;;;;;7.75;6.75;;;;;16.26;46.80;100936.91;5075214;27;46212;-81
2023/04/27 08:46:06;;;;;;;;;10.00;9.25;;;;;16.36;46.64;100943.03;5074662;28;45754;-80
2023/04/27 08:48:32;;;;;;;;;6.50;6.50;;;;;16.43;46.94;100945.13;5077193;28;45500;-79
2023/04/27 08:50:59;;;;;;;;;7.00;7.00;;;;;16.51;46.86;100938.19;5078502;28;46519;-79
2023/04/27 08:53:25;;;;;;;;;9.00;8.25;;;;;16.57;46.84;100934.97;5076629;27;45846;-79
2023/04/27 08:55:51;;;;;;;;;8.25;8.25;;;;;16.63;46.39;100933.63;5075484;27;45632;-80
2023/04/27 09:01:43;;;;;;;;;9.00;8.00;;;;;16.75;46.57;100933.34;5074481;28;45948;-79
2023/04/27 09:04:10;;;;;;;;;7.75;7.25;;;;;16.76;46.39;100931.53;5074412;27;45810;-79
2023/04/27 09:06:35;;;;;;;;;7.00;6.50;;;;;16.77;46.39;100938.50;5074575;27;45668;-81
2023/04/27 09:09:02;;;;;;;;;8.00;8.00;;;;;16.80;46.44;100938.19;5075224;27;45557;-79
2023/04/27 09:11:30;;;;;;;;;9.25;8.00;;;;;16.82;46.47;100925.69;5074653;27;45631;-77
2023/04/27 09:13:57;;;;;;;;;11.25;8.75;;;;;16.88;46.61;100922.47;5074544;27;46170;-79
2023/04/27 09:16:24;;;;;;;;;8.00;7.50;;;;;16.92;46.50;100936.25;5072417;28;45663;-75
2023/04/27 09:18:49;;;;;;;;;7.25;6.50;;;;;16.93;46.23;100929.97;5074701;27;45614;-75
2023/04/27 09:21:26;;;;;;;;;9.00;7.25;;;;;17.01;46.57;100930.09;5074141;27;45622;-80
2023/04/27 09:23:52;;;;;;;;;9.75;7.75;;;;;17.06;46.20;100935.78;5074164;27;45564;-74
2023/04/27 09:26:27;;;;;;;;;8.00;7.50;;;;;17.10;46.45;100940.69;5074189;28;45577;-78
2023/04/27 09:28:57;;;;;;;;;9.75;8.00;;;;;17.13;46.70;100937.72;5074406;28;45849;-77
2023/04/27 09:31:33;;;;;;;;;8.00;8.00;;;;;17.22;46.69;100933.38;5074346;27;46479;-75
2023/04/27 09:33:59;;;;;;;;;7.50;7.50;;;;;17.28;46.48;100939.91;5072852;28;46826;-77
2023/04/27 09:36:25;;;;;;;;;9.25;8.50;;;;;17.34;46.39;100934.03;5072489;28;45679;-76
2023/04/27 09:38:51;;;;;;;;;8.75;8.50;;;;;17.36;46.07;100927.63;5074221;27;45841;-79
2023/04/27 09:41:17;;;;;;;;;7.25;7.25;;;;;17.39;46.41;100927.34;5074110;27;46666;-79
2023/04/27 09:47:06;;;;;;;;;7.00;7.00;;;;;17.50;45.79;100926.31;5073744;28;45890;-79
2023/04/27 09:49:33;;;;;;;;;7.25;7.00;;;;;17.53;45.94;100918.94;5074105;27;45670;-75
2023/04/27 09:51:59;;;;;;;;;8.00;7.25;;;;;17.54;46.35;100923.22;5073895;28;46314;-78
2023/04/27 09:54:29;;;;;;;;;6.00;5.50;;;;;17.59;46.27;100920.16;5073845;27;45958;-78
2023/04/27 09:57:16;;;;;;;;;6.00;5.75;;;;;17.66;46.43;100923.06;5073646;27;45631;-79
2023/04/27 10:00:18;;;;;;;;;9.00;9.00;;;;;17.71;45.79;100924.28;5073955;28;45732;-78
2023/04/27 10:03:14;;;;;;;;;7.00;6.75;;;;;17.79;45.93;100928.88;5073698;28;45584;-79
2023/04/27 10:06:14;;;;;;;;;6.00;4.25;;;;;17.84;45.75;100927.44;5011371;28;45930;-78
2023/04/27 10:08:40;;;;;;;;;8.25;7.50;;;;;17.89;45.78;100925.19;4994425;28;45834;-79
2023/04/27 10:11:17;;;;;;;;;7.25;6.00;;;;;17.96;45.76;100920.13;5011454;28;45796;-76
2023/04/27 10:13:53;;;;;;;;;6.50;6.50;;;;;17.99;45.75;100918.00;5011203;28;46544;-80
2023/04/27 10:16:19;;;;;;;;;6.00;5.50;;;;;18.02;45.81;100909.78;5011120;28;46208;-79
2023/04/27 10:18:53;;;;;;;;;6.25;6.25;;;;;18.07;45.93;100904.00;5011555;28;45813;-76
2023/04/27 10:21:19;;;;;;;;;7.75;7.00;;;;;18.06;45.71;100901.50;5012918;28;45858;-81
2023/04/27 10:23:54;;;;;;;;;5.75;5.50;;;;;18.08;46.11;100895.09;5014651;28;46479;-80
2023/04/27 10:26:23;;;;;;;;;5.25;4.00;;;;;18.09;45.91;100893.22;5014577;28;46116;-79
2023/04/27 10:29:09;;;;;;;;;6.50;6.00;;;;;18.07;45.65;100898.72;5014357;28;45761;-78
2023/04/27 10:31:34;;;;;;;;;6.50;6.25;;;;;18.07;45.75;100896.06;5014825;28;45585;-77
2023/04/27 10:34:07;;;;;;;;;6.00;6.00;;;;;18.07;46.38;100893.41;5014468;28;46111;-78
2023/04/27 10:36:35;;;;;;;;;6.75;6.00;;;;;18.07;45.71;100903.19;5014281;28;46069;-81
2023/04/27 10:39:02;;;;;;;;;9.50;7.25;;;;;18.09;45.92;100906.50;5014372;28;45783;-78
2023/04/27 10:41:33;;;;;;;;;4.50;3.75;;;;;18.11;46.26;100893.94;5017754;28;45881;-78
2023/04/27 10:44:16;;;;;;;;;6.00;5.00;;;;;18.11;46.13;100899.22;5077145;28;45594;-80
2023/04/27 10:46:52;;;;;;;;;6.25;6.25;;;;;18.14;45.85;100896.31;5077076;27;46303;-81
2023/04/27 10:49:18;;;;;;;;;4.00;4.00;;;;;18.19;46.31;100897.47;5077380;27;45613;-81
2023/04/27 10:51:44;;;;;;;;;6.00;5.75;;;;;18.25;46.15;100901.34;5076921;27;45458;-77
2023/04/27 10:54:10;;;;;;;;;10.00;9.00;;;;;18.26;45.74;100901.22;5076785;27;46441;-78
2023/04/27 10:56:36;;;;;;;;;6.50;5.75;;;;;18.33;45.89;100898.78;5075999;27;46094;-79
2023/04/27 10:59:03;;;;;;;;;7.25;7.00;;;;;18.35;45.95;100894.97;5091886;27;45749;-76
2023/04/27 11:01:28;;;;;;;;;7.50;7.00;;;;;18.39;45.79;100893.72;5076773;27;45594;-80
2023/04/27 11:03:58;;;;;;;;;7.00;6.50;;;;;18.43;45.82;100884.47;5076172;27;45788;-79
2023/04/27 11:06:24;;;;;;;;;7.50;6.50;;;;;18.46;45.66;100878.03;5076532;27;46450;-78
2023/04/27 11:08:49;;;;;;;;;8.00;8.00;;;;;18.50;46.06;100878.53;5076445;27;45625;-80
2023/04/27 11:11:16;;;;;;;;;5.75;5.25;;;;;18.57;45.86;100880.44;5076424;28;45741;-79
2023/04/27 11:13:43;;;;;;;;;8.00;6.00;;;;;18.67;45.27;100873.25;5076112;27;46698;-80
2023/04/27 11:16:09;;;;;;;;;7.50;7.50;;;;;18.77;44.97;100873.16;5074473;28;47028;-82
2023/04/27 11:18:36;;;;;;;;;7.00;7.00;;;;;18.93;45.03;100864.47;5076121;27;45608;-82
2023/04/27 11:21:06;;;;;;;;;5.50;5.00;;;;;19.07;45.15;100853.25;5076197;27;45823;-79
2023/04/27 11:23:37;;;;;;;;;5.50;5.00;;;;;19.21;44.60;100834.06;5075929;27;45563;-80
2023/04/27 11:26:10;;;;;;;;;7.00;7.00;;;;;19.36;44.15;100844.91;5091328;27;46241;-80
2023/04/27 11:28:36;;;;;;;;;7.00;7.00;;;;;19.47;44.27;100850.81;5075856;27;45696;-79
2023/04/27 11:31:03;;;;;;;;;9.75;6.50;;;;;19.56;44.22;100839.22;5076040;28;45695;-76
2023/04/27 11:33:29;;;;;;;;;8.00;7.75;;;;;19.64;44.19;100827.78;5075939;27;46431;-76
2023/04/27 11:35:56;;;;;;;;;7.50;6.00;;;;;19.76;43.74;100829.13;5075906;28;46006;-76
2023/04/27 11:38:21;;;;;;;;;5.75;4.00;;;;;19.86;43.78;100827.19;5075881;27;45610;-79
2023/04/27 11:41:05;;;;;;;;;8.00;6.00;;;;;19.98;43.54;100822.34;5076070;27;45712;-77
2023/04/27 11:43:31;;;;;;;;;6.25;6.00;;;;;20.04;43.60;100811.88;5075609;28;46404;-75
2023/04/27 11:45:57;;;;;;;;;6.00;5.00;;;;;20.15;42.87;100815.22;5075802;28;46511;-80
2023/04/27 11:48:24;;;;;;;;;4.75;4.00;;;;;20.16;42.46;100807.06;5076002;27;45618;-77
2023/04/27 11:50:52;;;;;;;;;6.75;5.25;;;;;20.21;42.46;100801.25;5091437;27;45958;-78
2023/04/27 11:53:29;;;;;;;;;6.00;5.50;;;;;20.24;42.52;100793.78;5074719;28;46967;-76
2023/04/27 11:55:54;;;;;;;;;6.50;6.50;;;;;20.32;42.53;100800.94;5074597;27;45887;-75
2023/04/27 11:58:20;;;;;;;;;4.00;4.00;;;;;20.36;42.80;100797.78;5090180;27;46085;-79
2023/04/27 12:00:46;;;;;;;;;4.00;3.00;;;;;20.37;42.62;100799.44;5074708;27;45731;-79
2023/04/27 12:03:12;;;;;;;;;6.00;5.00;;;;;20.43;42.65;100798.78;5074454;27;45701;-77
2023/04/27 12:05:47;;;;;;;;;4.00;4.00;;;;;20.49;42.52;100792.78;5074644;27;45818;-79
2023/04/27 12:08:13;;;;;;;;;4.00;4.00;;;;;20.56;42.45;100792.94;5074536;27;45779;-79
2023/04/27 12:10:38;;;;;;;;;5.50;5.25;;;;;20.63;41.87;100791.25;5074588;27;45692;-78
2023/04/27 12:13:04;;;;;;;;;5.00;5.00;;;;;20.65;42.03;100799.91;5074242;27;46347;-79
2023/04/27 12:15:29;;;;;;;;;7.00;5.00;;;;;20.69;42.13;100801.22;5074358;27;45888;-79
2023/04/27 12:17:55;;;;;;;;;6.50;6.25;;;;;20.74;41.88;100796.22;5074262;27;45901;-78
2023/04/27 12:20:21;;;;;;;;;5.00;5.00;;;;;20.79;41.82;100785.06;5074223;28;45629;-77
2023/04/27 12:22:47;;;;;;;;;5.75;5.00;;;;;20.85;41.60;100787.03;5074226;27;45671;-80
2023/04/27 12:25:12;;;;;;;;;5.00;4.00;;;;;20.89;41.72;100786.53;5074151;28;45974;-76
2023/04/27 12:27:38;;;;;;;;;7.25;6.50;;;;;20.95;41.44;100791.16;5073951;27;45703;-77
2023/04/27 12:33:39;;;;;;;;;5.50;4.00;;;;;21.01;41.18;100791.47;5064372;28;45713;-78
2023/04/27 12:36:05;;;;;;;;;5.25;5.25;;;;;20.99;41.77;100773.03;5073830;27;45626;-79
2023/04/27 12:38:30;;;;;;;;;4.00;4.00;;;;;21.03;41.69;100784.16;5073898;27;45713;-79
2023/04/27 12:40:59;;;;;;;;;5.75;5.00;;;;;21.04;41.31;100776.00;5074048;27;45660;-80